Time;durP1;ratioP1;P1;durP2;ratioP2;P2;SDS_P1;SDS_P2;PMS_P1;PMS_P2;Temp;Humidity;BMP_temperature;BMP_pressure;BME280_temperature;BME280_humidity;BME280_pressure;Samples;Min_cycle;Max_cycle;Signal;HPM_P1;HPM_P2
2022/03/01 00:01:23;;;;;;;11.73;7.80;;;6.30;53.40;;;;;;5011101;28;20057;-75
2022/03/01 00:03:49;;;;;;;12.23;8.20;;;6.30;53.50;;;;;;5013097;28;20018;-75
2022/03/01 00:06:14;;;;;;;10.95;7.45;;;6.20;53.70;;;;;;5011623;28;20053;-75
2022/03/01 00:08:40;;;;;;;12.63;8.00;;;6.20;53.90;;;;;;5009278;28;20071;-76
2022/03/01 00:11:05;;;;;;;9.88;6.47;;;6.10;53.90;;;;;;5009028;28;20037;-75
2022/03/01 00:13:31;;;;;;;10.38;6.88;;;6.10;53.90;;;;;;5008187;28;20033;-75
2022/03/01 00:15:56;;;;;;;10.88;6.93;;;6.10;53.90;;;;;;5008732;28;20041;-75
2022/03/01 00:18:22;;;;;;;11.45;7.70;;;6.20;53.90;;;;;;5005772;28;20034;-74
2022/03/01 00:20:47;;;;;;;11.20;7.60;;;6.10;53.90;;;;;;5005902;28;20030;-74
2022/03/01 00:23:13;;;;;;;11.52;8.02;;;6.10;54.00;;;;;;5009057;28;20100;-75
2022/03/01 00:25:39;;;;;;;9.52;6.20;;;6.00;54.20;;;;;;5008130;28;20083;-75
2022/03/01 00:28:04;;;;;;;10.65;7.05;;;6.00;54.30;;;;;;5006310;28;20400;-75
2022/03/01 00:30:30;;;;;;;11.07;7.45;;;6.00;54.30;;;;;;5016638;28;20453;-75
2022/03/01 00:32:55;;;;;;;11.60;7.30;;;6.00;54.20;;;;;;5012531;28;20026;-75
2022/03/01 00:35:21;;;;;;;8.95;5.95;;;6.00;54.20;;;;;;5020602;28;20045;-74
2022/03/01 00:37:46;;;;;;;8.25;5.43;;;6.00;54.20;;;;;;5010616;28;20041;-74
2022/03/01 00:40:12;;;;;;;11.98;7.60;;;6.00;54.30;;;;;;5014811;28;20021;-75
2022/03/01 00:42:37;;;;;;;10.23;7.05;;;6.00;54.30;;;;;;5007314;28;20076;-75
2022/03/01 00:45:03;;;;;;;9.63;6.25;;;6.00;54.20;;;;;;5020086;28;20037;-74
2022/03/01 00:47:29;;;;;;;8.70;6.22;;;6.00;54.20;;;;;;5014587;28;20032;-74
2022/03/01 00:49:54;;;;;;;10.88;7.25;;;6.00;54.20;;;;;;5010941;28;20029;-74
2022/03/01 00:52:20;;;;;;;9.98;6.60;;;6.00;54.30;;;;;;5011072;28;20140;-74
2022/03/01 00:54:46;;;;;;;8.73;6.13;;;6.00;54.30;;;;;;5010695;28;20064;-75
2022/03/01 00:57:11;;;;;;;8.70;5.80;;;6.00;54.30;;;;;;5016089;28;20472;-75
2022/03/01 00:59:37;;;;;;;10.55;6.18;;;6.00;54.30;;;;;;5009085;28;20045;-75
2022/03/01 01:02:02;;;;;;;10.40;7.05;;;6.00;54.30;;;;;;5017475;28;20024;-74
2022/03/01 01:04:28;;;;;;;12.60;8.55;;;6.00;54.40;;;;;;5016335;28;20026;-75
2022/03/01 01:06:53;;;;;;;14.40;8.65;;;5.90;54.60;;;;;;5014621;28;20397;-75
2022/03/01 01:09:19;;;;;;;10.18;7.10;;;5.80;54.70;;;;;;5012128;28;20059;-75
2022/03/01 01:11:45;;;;;;;11.27;7.13;;;5.90;54.70;;;;;;5012801;28;20104;-74
2022/03/01 01:14:10;;;;;;;11.68;7.65;;;5.90;54.70;;;;;;5018100;28;20049;-74
2022/03/01 01:16:36;;;;;;;10.93;7.15;;;5.90;54.70;;;;;;5012791;28;20045;-75
2022/03/01 01:19:01;;;;;;;10.43;7.60;;;5.90;54.70;;;;;;5019434;28;20034;-74
2022/03/01 01:22:39;;;;;;;11.02;6.90;;;5.80;54.60;;;;;;5012648;28;20456;-74
2022/03/01 01:24:12;;;;;;;10.70;7.45;;;5.90;54.70;;;;;;4999546;28;20471;-74
2022/03/01 01:26:38;;;;;;;12.27;8.23;;;5.80;54.60;;;;;;5007426;28;20061;-74
2022/03/01 01:29:03;;;;;;;10.00;6.80;;;5.80;54.60;;;;;;5008207;28;20018;-74
2022/03/01 01:31:29;;;;;;;9.63;6.50;;;5.80;54.70;;;;;;5009353;28;20104;-77
2022/03/01 01:33:54;;;;;;;10.65;6.43;;;5.80;54.70;;;;;;5009343;28;20026;-76
2022/03/01 01:36:20;;;;;;;10.93;7.00;;;5.80;54.70;;;;;;5008851;28;20038;-75
2022/03/01 01:38:45;;;;;;;10.43;7.00;;;5.80;54.80;;;;;;5007051;28;20022;-76
2022/03/01 01:41:11;;;;;;;9.88;6.78;;;5.80;54.80;;;;;;5012598;28;20070;-75
2022/03/01 01:43:36;;;;;;;9.77;6.10;;;5.80;54.80;;;;;;5015342;28;20025;-74
2022/03/01 01:46:02;;;;;;;9.95;7.05;;;5.80;54.80;;;;;;5015880;28;20061;-75
2022/03/01 01:48:28;;;;;;;11.05;6.85;;;5.80;54.90;;;;;;5014250;28;20029;-75
2022/03/01 01:50:53;;;;;;;9.70;6.53;;;5.80;54.90;;;;;;5013998;28;20057;-75
2022/03/01 01:53:19;;;;;;;9.65;6.28;;;5.80;54.80;;;;;;5015132;28;20553;-76
2022/03/01 01:55:45;;;;;;;11.13;7.45;;;5.80;55.40;;;;;;5015798;28;20037;-76
2022/03/01 01:58:10;;;;;;;8.63;5.95;;;5.80;55.20;;;;;;5013952;28;20038;-74
2022/03/01 02:00:36;;;;;;;10.88;6.13;;;5.90;54.90;;;;;;5014791;28;20148;-74
2022/03/01 02:03:02;;;;;;;8.65;5.68;;;5.90;54.90;;;;;;5014985;28;20041;-75
2022/03/01 02:05:28;;;;;;;10.30;6.55;;;5.90;54.80;;;;;;5015311;28;20080;-74
2022/03/01 02:07:54;;;;;;;9.90;6.10;;;5.90;54.80;;;;;;5014127;28;20025;-74
2022/03/01 02:10:20;;;;;;;10.63;6.45;;;5.90;54.90;;;;;;5012564;28;20165;-73
2022/03/01 02:12:47;;;;;;;11.15;7.40;;;5.80;54.70;;;;;;5013806;28;20049;-74
2022/03/01 02:15:13;;;;;;;9.60;6.57;;;5.90;54.80;;;;;;5018345;28;20029;-74
2022/03/01 02:17:40;;;;;;;10.88;7.03;;;5.80;54.70;;;;;;5021429;28;20109;-74
2022/03/01 02:20:12;;;;;;;8.90;5.78;;;5.80;54.70;;;;;;5014732;28;20385;-74
2022/03/01 02:22:38;;;;;;;9.52;6.25;;;5.90;54.80;;;;;;5022833;28;20071;-74
2022/03/01 02:25:05;;;;;;;9.15;6.30;;;5.80;54.70;;;;;;5018148;28;20026;-74
2022/03/01 02:27:30;;;;;;;9.60;6.32;;;5.90;54.80;;;;;;5023885;28;20053;-74
2022/03/01 02:29:56;;;;;;;9.02;6.10;;;5.90;54.80;;;;;;5016397;28;20041;-74
2022/03/01 02:32:21;;;;;;;9.32;6.07;;;5.90;54.90;;;;;;5020045;28;20033;-74
2022/03/01 02:34:48;;;;;;;9.20;5.95;;;5.80;54.80;;;;;;5018241;28;20400;-74
2022/03/01 02:37:14;;;;;;;9.32;6.05;;;5.80;54.90;;;;;;5025918;28;20078;-74
2022/03/01 02:39:39;;;;;;;8.88;6.22;;;5.80;55.00;;;;;;5013259;28;20092;-74
2022/03/01 02:42:05;;;;;;;8.93;5.78;;;5.80;55.00;;;;;;5023313;28;20072;-75
2022/03/01 02:44:30;;;;;;;9.77;6.22;;;5.80;55.00;;;;;;5014022;28;20022;-74
2022/03/01 02:46:56;;;;;;;9.80;5.82;;;5.80;55.10;;;;;;5014347;28;20369;-75
2022/03/01 02:49:22;;;;;;;9.30;6.40;;;5.80;55.20;;;;;;5019236;28;20040;-74
2022/03/01 02:51:47;;;;;;;9.65;6.35;;;5.80;55.30;;;;;;5030890;28;20128;-75
2022/03/01 02:54:13;;;;;;;9.10;5.75;;;5.90;55.40;;;;;;5014666;28;20014;-74
2022/03/01 02:56:39;;;;;;;9.02;6.38;;;5.80;55.40;;;;;;5008989;28;20038;-74
2022/03/01 02:59:05;;;;;;;9.90;6.05;;;5.70;55.40;;;;;;5012759;28;20378;-74
2022/03/01 03:01:31;;;;;;;10.00;6.28;;;5.70;55.50;;;;;;5011574;28;20022;-74
2022/03/01 03:03:57;;;;;;;9.27;6.32;;;5.70;55.50;;;;;;5011347;28;20029;-75
2022/03/01 03:06:23;;;;;;;10.00;6.10;;;5.70;55.60;;;;;;5011528;28;20034;-74
2022/03/01 03:08:48;;;;;;;9.98;6.40;;;5.60;55.60;;;;;;5010263;28;20029;-75
2022/03/01 03:11:14;;;;;;;10.43;6.70;;;5.60;55.70;;;;;;5016315;28;20053;-75
2022/03/01 03:13:40;;;;;;;10.77;6.18;;;5.60;55.70;;;;;;5016117;28;20021;-74
2022/03/01 03:16:07;;;;;;;8.93;5.90;;;5.60;55.80;;;;;;5012043;28;20025;-75
2022/03/01 03:18:33;;;;;;;10.18;6.43;;;5.60;55.80;;;;;;5015796;28;20473;-74
2022/03/01 03:20:59;;;;;;;10.20;6.68;;;5.60;55.80;;;;;;5011326;28;20037;-75
2022/03/01 03:23:24;;;;;;;18.05;9.35;;;5.60;55.90;;;;;;5009951;28;20025;-74
2022/03/01 03:25:50;;;;;;;13.50;7.97;;;5.50;55.80;;;;;;5010688;28;20485;-74
2022/03/01 03:28:16;;;;;;;13.25;6.68;;;5.60;55.90;;;;;;5010227;28;20026;-74
2022/03/01 03:30:41;;;;;;;10.70;6.93;;;5.60;55.90;;;;;;5019184;28;20503;-74
2022/03/01 03:33:07;;;;;;;10.00;6.32;;;5.50;56.00;;;;;;5023138;28;20025;-75
2022/03/01 03:35:33;;;;;;;12.68;7.70;;;5.60;56.10;;;;;;5013765;28;20041;-75
2022/03/01 03:37:59;;;;;;;11.88;7.00;;;5.50;56.10;;;;;;5021866;28;20025;-75
2022/03/01 03:40:24;;;;;;;14.73;8.38;;;5.60;56.20;;;;;;5011398;28;20033;-75
2022/03/01 03:42:50;;;;;;;12.13;7.70;;;5.50;56.20;;;;;;5011626;28;20521;-75
2022/03/01 03:45:15;;;;;;;9.95;6.53;;;5.50;56.30;;;;;;5011554;28;20030;-75
2022/03/01 03:47:42;;;;;;;9.80;6.28;;;5.50;56.30;;;;;;5010007;28;20028;-75
2022/03/01 03:50:09;;;;;;;10.48;6.55;;;5.60;56.30;;;;;;5010896;28;20385;-75
2022/03/01 03:52:36;;;;;;;10.63;7.03;;;5.60;56.20;;;;;;5010839;28;20113;-75
2022/03/01 03:55:02;;;;;;;10.73;6.97;;;5.50;56.10;;;;;;5007917;28;20026;-74
2022/03/01 03:57:28;;;;;;;9.10;6.30;;;5.60;56.10;;;;;;5015062;28;20052;-75
2022/03/01 03:59:54;;;;;;;10.35;6.78;;;5.60;56.00;;;;;;5018956;28;20476;-74
2022/03/01 04:02:19;;;;;;;8.88;5.90;;;5.60;56.10;;;;;;5017740;28;20496;-74
2022/03/01 04:04:45;;;;;;;9.02;5.78;;;5.60;56.10;;;;;;5014606;28;20101;-74
2022/03/01 04:07:10;;;;;;;9.45;5.72;;;5.60;56.10;;;;;;5027120;28;20033;-75
2022/03/01 04:09:36;;;;;;;11.07;7.35;;;5.60;56.00;;;;;;5014510;28;20022;-74
2022/03/01 04:12:02;;;;;;;12.30;6.97;;;5.60;56.00;;;;;;5019649;28;20041;-74
2022/03/01 04:14:28;;;;;;;9.73;6.50;;;5.60;56.00;;;;;;5007485;28;20033;-74
2022/03/01 04:16:53;;;;;;;9.13;6.15;;;5.60;56.00;;;;;;5006460;28;20034;-74
2022/03/01 04:19:19;;;;;;;11.48;8.07;;;5.60;56.00;;;;;;5011054;28;20040;-74
2022/03/01 04:21:44;;;;;;;10.40;6.55;;;5.60;55.90;;;;;;5014879;28;20022;-74
2022/03/01 04:24:10;;;;;;;9.43;6.50;;;5.60;56.00;;;;;;5015053;28;20052;-73
2022/03/01 04:26:35;;;;;;;9.95;6.47;;;5.60;56.10;;;;;;5014393;28;20030;-74
2022/03/01 04:29:01;;;;;;;10.80;6.93;;;5.60;56.00;;;;;;5024794;28;20036;-74
2022/03/01 04:31:26;;;;;;;11.25;7.25;;;5.60;55.90;;;;;;5010643;28;20018;-74
2022/03/01 04:33:54;;;;;;;11.50;7.43;;;5.60;56.00;;;;;;5010157;28;20465;-74
2022/03/01 04:36:19;;;;;;;10.27;6.90;;;5.60;56.00;;;;;;5011849;28;20770;-74
2022/03/01 04:38:45;;;;;;;9.05;6.43;;;5.70;56.10;;;;;;5017695;28;20062;-74
2022/03/01 04:41:11;;;;;;;8.88;5.93;;;5.80;56.10;;;;;;5011769;28;20109;-74
2022/03/01 04:43:37;;;;;;;9.90;6.90;;;5.60;56.00;;;;;;5024891;28;20075;-74
2022/03/01 04:46:03;;;;;;;9.55;6.30;;;5.70;56.00;;;;;;5010672;28;20048;-74
2022/03/01 04:48:29;;;;;;;9.50;6.53;;;5.60;56.00;;;;;;5009021;28;20484;-75
2022/03/01 04:50:55;;;;;;;9.43;6.53;;;5.60;56.10;;;;;;5009729;28;20068;-74
2022/03/01 04:53:21;;;;;;;11.00;6.57;;;5.60;56.10;;;;;;5013690;28;20045;-74
2022/03/01 04:55:46;;;;;;;9.93;6.50;;;5.50;56.10;;;;;;5017924;28;20472;-75
2022/03/01 04:58:12;;;;;;;9.57;6.00;;;5.50;56.20;;;;;;5020265;28;20037;-74
2022/03/01 05:00:38;;;;;;;10.88;7.18;;;5.50;56.20;;;;;;5009018;28;20052;-74
2022/03/01 05:03:04;;;;;;;9.77;6.63;;;5.50;56.20;;;;;;5009366;28;20053;-74
2022/03/01 05:05:29;;;;;;;14.85;7.60;;;5.50;56.20;;;;;;5006360;28;20507;-75
2022/03/01 05:07:55;;;;;;;9.95;7.53;;;5.50;56.20;;;;;;5006579;28;20049;-74
2022/03/01 05:10:21;;;;;;;10.80;7.20;;;5.50;56.30;;;;;;5009073;28;20030;-73
2022/03/01 05:12:49;;;;;;;10.98;6.75;;;5.40;56.30;;;;;;5010168;28;20093;-73
2022/03/01 05:15:16;;;;;;;9.88;6.28;;;5.40;56.30;;;;;;5008995;28;20129;-73
2022/03/01 05:17:42;;;;;;;12.57;7.93;;;5.50;56.30;;;;;;5008938;28;20049;-74
2022/03/01 05:20:09;;;;;;;11.95;7.70;;;5.50;56.30;;;;;;5021747;28;20034;-73
2022/03/01 05:22:36;;;;;;;11.75;8.15;;;5.40;56.20;;;;;;5010204;28;20404;-74
2022/03/01 05:25:05;;;;;;;11.73;7.97;;;5.40;56.30;;;;;;5007282;28;20516;-73
2022/03/01 05:27:30;;;;;;;12.30;8.02;;;5.40;56.50;;;;;;5016078;28;20030;-73
2022/03/01 05:29:57;;;;;;;11.32;7.90;;;5.40;56.50;;;;;;5023064;28;20076;-72
2022/03/01 05:32:22;;;;;;;9.32;6.72;;;5.30;56.50;;;;;;5016854;28;20072;-72
2022/03/01 05:34:47;;;;;;;13.15;7.40;;;5.40;56.50;;;;;;5021815;28;20418;-74
2022/03/01 05:37:13;;;;;;;10.35;7.25;;;5.40;56.40;;;;;;5008484;28;20057;-73
2022/03/01 05:39:39;;;;;;;10.48;7.15;;;5.40;56.30;;;;;;5010358;28;20025;-73
2022/03/01 05:42:05;;;;;;;11.88;8.15;;;5.50;56.40;;;;;;5018402;28;20042;-73
2022/03/01 05:44:30;;;;;;;13.60;8.48;;;5.40;56.30;;;;;;5008397;28;20485;-73
2022/03/01 05:46:56;;;;;;;12.20;8.68;;;5.40;56.50;;;;;;5008155;28;20053;-71
2022/03/01 05:49:22;;;;;;;19.63;11.55;;;5.40;56.50;;;;;;5013910;28;20035;-71
2022/03/01 05:51:48;;;;;;;17.27;10.15;;;5.30;56.60;;;;;;5020978;28;20442;-72
2022/03/01 05:54:13;;;;;;;12.68;8.27;;;5.30;56.70;;;;;;5012724;28;20043;-72
2022/03/01 05:56:39;;;;;;;13.10;8.77;;;5.20;56.70;;;;;;5018863;28;20041;-73
2022/03/01 05:59:04;;;;;;;12.75;8.57;;;5.20;56.70;;;;;;5010001;28;20117;-73
2022/03/01 06:01:30;;;;;;;13.82;8.63;;;5.20;56.70;;;;;;5009482;28;20117;-73
2022/03/01 06:03:55;;;;;;;14.93;9.43;;;5.20;56.80;;;;;;5009489;28;20031;-73
2022/03/01 06:06:21;;;;;;;10.48;7.82;;;5.10;56.80;;;;;;5009534;28;20542;-73
2022/03/01 06:08:46;;;;;;;13.80;8.85;;;5.10;56.80;;;;;;5008480;28;20026;-75
2022/03/01 06:11:12;;;;;;;12.45;8.85;;;5.10;56.90;;;;;;5009581;28;20018;-75
2022/03/01 06:13:38;;;;;;;10.13;7.07;;;5.10;57.00;;;;;;5009458;28;20036;-74
2022/03/01 06:16:04;;;;;;;10.50;7.25;;;5.20;57.00;;;;;;5009180;28;20042;-74
2022/03/01 06:18:30;;;;;;;10.90;7.28;;;5.20;57.00;;;;;;5009033;28;20059;-74
2022/03/01 06:20:57;;;;;;;8.45;5.93;;;5.20;57.00;;;;;;5011628;28;20026;-74
2022/03/01 06:23:22;;;;;;;10.52;7.05;;;5.20;57.10;;;;;;5010209;28;20026;-73
2022/03/01 06:25:49;;;;;;;13.07;8.35;;;5.10;57.20;;;;;;5013121;28;20022;-74
2022/03/01 06:28:14;;;;;;;13.90;9.45;;;5.10;57.30;;;;;;5019407;28;20040;-74
2022/03/01 06:30:40;;;;;;;12.30;9.10;;;5.10;57.60;;;;;;5012696;28;20416;-72
2022/03/01 06:33:05;;;;;;;13.05;9.00;;;5.00;57.80;;;;;;5013228;28;20021;-72
2022/03/01 06:35:31;;;;;;;11.80;8.80;;;5.00;58.20;;;;;;5013035;28;20046;-73
2022/03/01 06:37:56;;;;;;;12.45;8.60;;;4.90;58.40;;;;;;5012381;28;20033;-72
2022/03/01 06:40:23;;;;;;;20.10;12.73;;;4.90;58.50;;;;;;5012314;28;20080;-72
2022/03/01 06:42:49;;;;;;;13.13;9.38;;;4.90;58.70;;;;;;5021358;28;20472;-72
2022/03/01 06:45:16;;;;;;;14.00;9.32;;;4.80;58.80;;;;;;5012106;28;20018;-72
2022/03/01 06:47:41;;;;;;;13.75;9.20;;;4.80;58.80;;;;;;5010750;28;20100;-72
2022/03/01 06:50:08;;;;;;;12.85;8.82;;;4.80;58.90;;;;;;5016865;28;20105;-73
2022/03/01 06:52:34;;;;;;;12.88;9.15;;;4.90;59.00;;;;;;5011940;28;20105;-72
2022/03/01 06:55:01;;;;;;;13.00;9.05;;;4.90;59.10;;;;;;5012210;28;20037;-74
2022/03/01 06:57:27;;;;;;;14.15;9.50;;;4.80;59.10;;;;;;5012394;28;20435;-74
2022/03/01 06:59:53;;;;;;;12.77;8.90;;;4.80;59.30;;;;;;5020058;28;20041;-74
2022/03/01 07:02:19;;;;;;;13.00;9.10;;;4.90;59.30;;;;;;5027017;28;20036;-73
2022/03/01 07:04:45;;;;;;;12.57;9.07;;;4.90;59.30;;;;;;5023541;28;20029;-73
2022/03/01 07:07:11;;;;;;;13.23;8.85;;;4.90;59.40;;;;;;5014541;28;20033;-72
2022/03/01 07:09:36;;;;;;;10.60;8.10;;;5.00;59.30;;;;;;5011802;28;20029;-72
2022/03/01 07:12:02;;;;;;;12.40;8.73;;;5.00;59.10;;;;;;5017131;28;20100;-72
2022/03/01 07:14:28;;;;;;;13.20;8.88;;;5.10;58.90;;;;;;5013699;28;20116;-72
2022/03/01 07:16:54;;;;;;;15.68;10.75;;;5.10;59.00;;;;;;5011895;28;20116;-72
2022/03/01 07:19:19;;;;;;;13.77;9.43;;;5.20;59.10;;;;;;5013281;28;20022;-72
2022/03/01 07:21:45;;;;;;;11.98;7.80;;;5.20;59.00;;;;;;5015943;28;20018;-72
2022/03/01 07:24:10;;;;;;;17.05;11.27;;;5.40;58.80;;;;;;5015212;28;20428;-72
2022/03/01 07:26:36;;;;;;;14.85;9.30;;;5.30;58.90;;;;;;5012608;28;20480;-73
2022/03/01 07:29:02;;;;;;;14.13;9.60;;;5.30;59.00;;;;;;5008090;28;20029;-73
2022/03/01 07:31:28;;;;;;;9.95;7.43;;;5.30;59.00;;;;;;5005235;28;20033;-73
2022/03/01 07:33:54;;;;;;;12.73;8.35;;;5.30;59.00;;;;;;5007069;28;20033;-73
2022/03/01 07:36:20;;;;;;;12.95;8.32;;;5.40;59.00;;;;;;5005127;28;20041;-73
2022/03/01 07:38:46;;;;;;;13.90;9.35;;;5.40;59.00;;;;;;5008517;28;20077;-73
2022/03/01 07:41:12;;;;;;;15.40;9.68;;;5.40;59.00;;;;;;5008822;28;20018;-73
2022/03/01 07:43:39;;;;;;;11.65;7.50;;;5.50;59.00;;;;;;5005154;28;20516;-74
2022/03/01 07:46:07;;;;;;;14.25;9.30;;;5.50;58.80;;;;;;5006910;28;20053;-74
2022/03/01 07:48:32;;;;;;;13.43;8.80;;;5.60;58.80;;;;;;5010607;28;20030;-74
2022/03/01 07:50:58;;;;;;;16.48;10.77;;;5.60;58.60;;;;;;5011157;28;20543;-73
2022/03/01 07:53:24;;;;;;;16.00;10.10;;;5.60;58.60;;;;;;5010173;28;20022;-73
2022/03/01 07:55:49;;;;;;;14.50;10.07;;;5.60;58.70;;;;;;5009733;28;20769;-73
2022/03/01 07:58:15;;;;;;;11.77;8.20;;;5.50;58.70;;;;;;5007712;28;20034;-73
2022/03/01 08:00:41;;;;;;;13.35;8.13;;;5.60;58.80;;;;;;5004819;28;20030;-73
2022/03/01 08:03:06;;;;;;;13.65;9.27;;;5.60;58.70;;;;;;5009355;28;20025;-71
2022/03/01 08:05:32;;;;;;;14.55;10.40;;;5.70;58.60;;;;;;5007385;28;20080;-72
2022/03/01 08:07:58;;;;;;;16.30;10.32;;;5.70;58.50;;;;;;5001557;28;20014;-73
2022/03/01 08:10:25;;;;;;;14.75;10.02;;;5.80;58.40;;;;;;5004933;28;20033;-73
2022/03/01 08:12:50;;;;;;;16.58;11.65;;;5.70;58.40;;;;;;5006022;28;20026;-72
2022/03/01 08:15:16;;;;;;;14.57;9.80;;;5.70;58.40;;;;;;5006180;28;20543;-73
2022/03/01 08:17:49;;;;;;;17.38;10.52;;;5.70;58.60;;;;;;5006418;28;20076;-72
2022/03/01 08:20:15;;;;;;;12.80;8.88;;;5.70;58.70;;;;;;5005527;28;20400;-73
2022/03/01 08:22:41;;;;;;;11.52;8.10;;;5.70;58.70;;;;;;5008456;28;20051;-73
2022/03/01 08:25:07;;;;;;;15.18;10.05;;;5.80;58.70;;;;;;5003049;28;20030;-72
2022/03/01 08:27:33;;;;;;;13.13;8.90;;;5.70;58.60;;;;;;5002405;28;20030;-72
2022/03/01 08:29:58;;;;;;;12.77;9.45;;;5.70;58.70;;;;;;5005245;28;20659;-72
2022/03/01 08:32:24;;;;;;;15.23;9.88;;;5.80;58.70;;;;;;5006991;28;20029;-73
2022/03/01 08:34:49;;;;;;;13.70;8.80;;;5.70;58.90;;;;;;5005501;28;21112;-73
2022/03/01 08:37:15;;;;;;;13.10;9.07;;;5.80;58.90;;;;;;4995023;28;20117;-73
2022/03/01 08:39:40;;;;;;;15.98;10.02;;;5.90;58.90;;;;;;5004224;28;20026;-74
2022/03/01 08:42:06;;;;;;;12.98;8.00;;;5.90;58.90;;;;;;5002899;28;20037;-73
2022/03/01 08:44:32;;;;;;;11.88;8.25;;;6.10;58.70;;;;;;4999398;28;20117;-72
2022/03/01 08:46:57;;;;;;;13.13;9.25;;;6.20;58.60;;;;;;5003506;28;20484;-73
2022/03/01 08:49:23;;;;;;;13.18;8.95;;;6.20;58.20;;;;;;5007487;28;20030;-72
2022/03/01 08:51:48;;;;;;;15.75;10.52;;;6.20;58.10;;;;;;5003293;28;20058;-73
2022/03/01 08:54:14;;;;;;;13.10;9.30;;;6.20;58.20;;;;;;5003968;28;20113;-73
2022/03/01 08:56:40;;;;;;;13.13;9.15;;;6.30;58.20;;;;;;5002359;28;20049;-73
2022/03/01 08:59:05;;;;;;;12.90;8.90;;;6.40;58.00;;;;;;5003322;28;20041;-72
2022/03/01 09:01:32;;;;;;;15.23;10.35;;;6.50;57.70;;;;;;5004040;28;20136;-72
2022/03/01 09:03:59;;;;;;;14.07;10.23;;;6.40;57.30;;;;;;5003830;28;20105;-72
2022/03/01 09:06:25;;;;;;;14.68;9.73;;;6.50;57.50;;;;;;5003582;28;20041;-72
2022/03/01 09:08:51;;;;;;;11.38;8.35;;;6.40;57.40;;;;;;5005488;28;20158;-71
2022/03/01 09:11:16;;;;;;;12.38;8.20;;;6.60;57.40;;;;;;5008127;28;20037;-73
2022/03/01 09:13:42;;;;;;;14.30;9.52;;;6.70;57.30;;;;;;5008878;28;20088;-73
2022/03/01 09:16:08;;;;;;;12.80;8.63;;;6.70;56.90;;;;;;5008351;28;20037;-73
2022/03/01 09:18:34;;;;;;;15.77;10.25;;;6.80;56.70;;;;;;5011586;28;20104;-73
2022/03/01 09:21:00;;;;;;;10.20;7.13;;;6.80;56.30;;;;;;5010742;28;20026;-74
2022/03/01 09:23:26;;;;;;;11.13;7.88;;;6.90;56.40;;;;;;5014714;28;20379;-74
2022/03/01 09:25:52;;;;;;;15.45;9.60;;;7.10;56.30;;;;;;5010773;28;20037;-73
2022/03/01 09:28:17;;;;;;;14.27;9.38;;;7.10;55.80;;;;;;5016207;28;20698;-73
2022/03/01 09:30:43;;;;;;;13.70;9.05;;;7.00;55.80;;;;;;5018250;28;20087;-73
2022/03/01 09:33:09;;;;;;;12.13;9.00;;;7.10;56.00;;;;;;5011184;28;20017;-73
2022/03/01 09:35:34;;;;;;;14.32;10.45;;;7.10;55.80;;;;;;5009227;28;20103;-73
2022/03/01 09:38:00;;;;;;;15.70;9.73;;;7.10;55.30;;;;;;5009453;28;20362;-72
2022/03/01 09:40:26;;;;;;;12.65;8.55;;;7.10;55.00;;;;;;5006966;28;20425;-72
2022/03/01 09:42:52;;;;;;;11.45;8.40;;;7.20;55.00;;;;;;5013033;28;20022;-73
2022/03/01 09:45:18;;;;;;;15.00;9.23;;;7.30;54.90;;;;;;5011950;28;20026;-73
2022/03/01 09:47:44;;;;;;;12.63;8.35;;;7.40;54.90;;;;;;5012978;28;20030;-73
2022/03/01 09:50:10;;;;;;;14.77;9.40;;;7.40;54.70;;;;;;5014284;28;20418;-73
2022/03/01 09:52:37;;;;;;;11.75;8.63;;;7.50;54.60;;;;;;5004407;28;20025;-72
2022/03/01 09:55:04;;;;;;;11.52;8.35;;;7.40;54.60;;;;;;5009435;28;20093;-73
2022/03/01 09:57:30;;;;;;;11.75;8.10;;;7.50;54.80;;;;;;5006640;28;20038;-73
2022/03/01 09:59:56;;;;;;;12.70;8.13;;;7.60;54.70;;;;;;5005007;28;20084;-73
2022/03/01 10:02:35;;;;;;;11.32;8.05;;;7.70;54.60;;;;;;5009335;28;20030;-71
2022/03/01 10:05:02;;;;;;;10.32;7.30;;;7.70;54.10;;;;;;5010907;28;20033;-71
2022/03/01 10:07:30;;;;;;;12.95;8.75;;;7.70;54.20;;;;;;5014577;28;20476;-71
2022/03/01 10:10:03;;;;;;;13.32;9.85;;;7.90;54.10;;;;;;5018692;28;20032;-71
2022/03/01 10:12:29;;;;;;;10.85;7.88;;;7.90;53.90;;;;;;5009321;28;20101;-72
2022/03/01 10:15:06;;;;;;;12.05;9.10;;;8.00;53.90;;;;;;5010868;28;20120;-71
2022/03/01 10:17:37;;;;;;;16.13;9.93;;;8.00;53.70;;;;;;5009575;28;20088;-72
2022/03/01 10:20:13;;;;;;;14.13;9.85;;;8.00;53.20;;;;;;5006221;28;20108;-73
2022/03/01 10:22:44;;;;;;;13.10;9.10;;;8.10;53.30;;;;;;5011973;28;20032;-73
2022/03/01 10:25:13;;;;;;;13.40;8.98;;;8.20;53.30;;;;;;5015738;28;20017;-72
2022/03/01 10:27:39;;;;;;;12.68;9.13;;;8.40;53.20;;;;;;5016865;28;20026;-73
2022/03/01 10:30:07;;;;;;;13.77;9.35;;;8.50;52.60;;;;;;5015588;28;20487;-73
2022/03/01 10:32:33;;;;;;;10.35;7.13;;;8.60;52.50;;;;;;5009881;28;20022;-72
2022/03/01 10:35:08;;;;;;;11.80;8.25;;;8.80;52.50;;;;;;5021812;28;20061;-72
2022/03/01 10:37:38;;;;;;;10.60;7.55;;;8.90;52.30;;;;;;5026263;28;20045;-73
2022/03/01 10:40:33;;;;;;;11.18;7.82;;;9.10;52.20;;;;;;5021994;28;20476;-73
2022/03/01 10:43:09;;;;;;;13.82;8.27;;;9.20;51.50;;;;;;5013599;28;20030;-73
2022/03/01 10:45:48;;;;;;;11.70;8.80;;;9.20;51.50;;;;;;5017275;28;20030;-74
2022/03/01 10:48:26;;;;;;;10.25;7.43;;;9.30;50.90;;;;;;5008782;28;20025;-73
2022/03/01 10:51:09;;;;;;;11.48;8.77;;;9.40;51.10;;;;;;5020229;28;20252;-73
2022/03/01 10:53:40;;;;;;;14.45;9.95;;;9.50;50.80;;;;;;5014547;28;20038;-72
2022/03/01 10:56:12;;;;;;;12.52;8.65;;;9.40;50.30;;;;;;5017812;28;20029;-73
2022/03/01 10:58:39;;;;;;;16.48;10.30;;;9.40;50.80;;;;;;5021034;28;20037;-73
2022/03/01 11:01:06;;;;;;;12.32;8.10;;;9.40;50.20;;;;;;5010840;28;20030;-73
2022/03/01 11:03:32;;;;;;;11.73;8.25;;;9.50;50.40;;;;;;5010194;28;20036;-72
2022/03/01 11:05:58;;;;;;;13.68;9.40;;;9.40;50.40;;;;;;5006401;28;20034;-72
2022/03/01 11:08:37;;;;;;;11.50;8.85;;;9.40;50.30;;;;;;5011233;28;20030;-72
2022/03/01 11:11:09;;;;;;;13.60;10.15;;;9.40;50.60;;;;;;5010178;28;20081;-72
2022/03/01 11:13:39;;;;;;;12.43;9.15;;;9.40;50.30;;;;;;5009010;28;20017;-73
2022/03/01 11:16:27;;;;;;;11.98;9.18;;;9.40;50.50;;;;;;5009796;28;20454;-73
2022/03/01 11:19:18;;;;;;;13.52;8.35;;;9.50;50.50;;;;;;5011580;28;20022;-73
2022/03/01 11:21:47;;;;;;;15.27;10.50;;;9.70;50.70;;;;;;5015473;28;20053;-73
2022/03/01 11:24:15;;;;;;;9.63;7.10;;;9.80;49.90;;;;;;5008363;28;20083;-73
2022/03/01 11:26:41;;;;;;;12.00;8.73;;;9.90;49.70;;;;;;5010564;28;20025;-73
2022/03/01 11:29:12;;;;;;;12.38;8.75;;;9.80;49.70;;;;;;5010756;28;20025;-74
2022/03/01 11:31:38;;;;;;;11.63;8.90;;;9.90;49.70;;;;;;5012381;28;20061;-74
2022/03/01 11:34:15;;;;;;;12.65;8.75;;;10.00;49.70;;;;;;5022051;28;20017;-74
2022/03/01 11:36:49;;;;;;;9.93;7.38;;;10.00;49.20;;;;;;5012265;28;20042;-73
2022/03/01 11:39:17;;;;;;;13.90;9.40;;;10.10;49.50;;;;;;5018603;28;20049;-73
2022/03/01 11:41:51;;;;;;;11.75;7.97;;;10.10;49.20;;;;;;5021319;28;20083;-73
2022/03/01 11:44:20;;;;;;;8.38;5.90;;;10.20;49.30;;;;;;4998880;28;20104;-73
2022/03/01 11:46:48;;;;;;;9.32;6.75;;;10.40;49.50;;;;;;5002208;28;20033;-73
2022/03/01 11:49:16;;;;;;;11.18;8.52;;;10.40;49.30;;;;;;5008249;28;20381;-74
2022/03/01 11:51:53;;;;;;;14.15;9.73;;;10.50;49.10;;;;;;5006677;28;20412;-73
2022/03/01 11:54:22;;;;;;;12.85;8.57;;;10.40;48.80;;;;;;5016581;28;20030;-73
2022/03/01 11:56:51;;;;;;;10.50;7.18;;;10.30;49.10;;;;;;5006064;28;20096;-73
2022/03/01 11:59:18;;;;;;;15.75;10.02;;;10.40;49.30;;;;;;5011192;28;20125;-73
2022/03/01 12:01:46;;;;;;;12.00;8.68;;;10.30;48.80;;;;;;5013803;28;20492;-73
2022/03/01 12:04:12;;;;;;;14.73;9.43;;;10.30;49.00;;;;;;5009450;28;20026;-73
2022/03/01 12:06:39;;;;;;;12.00;9.00;;;10.30;48.90;;;;;;5010289;28;20041;-73
2022/03/01 12:09:10;;;;;;;11.57;8.57;;;10.30;48.90;;;;;;5016239;28;20033;-73
2022/03/01 12:11:40;;;;;;;10.95;7.90;;;10.40;49.00;;;;;;5008508;28;20034;-72
2022/03/01 12:14:18;;;;;;;12.00;8.88;;;10.30;49.00;;;;;;5014056;28;20021;-73
2022/03/01 12:16:44;;;;;;;14.40;9.38;;;10.40;49.00;;;;;;5011891;28;20030;-72
2022/03/01 12:19:14;;;;;;;11.88;8.68;;;10.40;49.20;;;;;;5017545;28;20043;-72
2022/03/01 12:21:47;;;;;;;10.85;7.55;;;10.40;49.40;;;;;;5012919;28;20030;-72
2022/03/01 12:24:13;;;;;;;13.82;10.30;;;10.70;49.30;;;;;;5015297;28;20032;-72
2022/03/01 12:26:50;;;;;;;14.52;10.98;;;10.60;48.50;;;;;;5007431;28;20031;-73
2022/03/01 12:29:18;;;;;;;11.82;8.55;;;10.60;48.50;;;;;;5010639;28;20052;-72
2022/03/01 12:32:01;;;;;;;9.50;6.78;;;10.70;48.90;;;;;;5013464;28;20033;-73
2022/03/01 12:34:31;;;;;;;13.40;8.68;;;10.90;48.90;;;;;;5001410;28;20049;-73
2022/03/01 12:37:01;;;;;;;13.15;8.73;;;11.00;48.70;;;;;;5003796;28;20056;-72
2022/03/01 12:39:27;;;;;;;14.85;10.65;;;11.10;48.70;;;;;;5003325;28;20024;-72
2022/03/01 12:41:54;;;;;;;14.88;10.75;;;11.10;48.30;;;;;;5006085;28;20026;-72
2022/03/01 12:44:22;;;;;;;12.35;8.90;;;11.10;48.10;;;;;;5007128;28;20026;-72
2022/03/01 12:46:48;;;;;;;14.52;9.80;;;11.20;48.10;;;;;;5008558;28;20049;-72